Makantoyka — SV3556 — position and weather

sailwx.info

Track history (hours):
 
Tides and Currents Weather Stations Pressure Air Temp Water Temp Dewpoint Dewpoint Depression Visibility Wind Speed Wind Dir Waves Ship Positions

Makantoyka

Last reported at 2017-Sep-17 15:44 UTC. Time now 2017-Sep-19 11:52 UTC.
Position N 40°15' E 024°06'.

Length 18 m; draft 1.5 m.

Type: Fishing. MMSI: 237451000.

Date/timePositionNaut miles runAvg speedWind from/ knotsBaromVisibWave heightAir tempDewpointWater temp
2017-Sep-17 15:44N 40°15' E 024°06'1 6.9
2017-Sep-17 15:30N 40°14' E 024°08'3 6.9
2017-Sep-17 15:00N 40°11' E 024°11'4 6.6
2017-Sep-17 14:26N 40°09' E 024°15'6 1.6
2017-Sep-17 10:31N 40°08' E 024°23'0 0.8
2017-Sep-17 10:29N 40°08' E 024°23'1 0.9
2017-Sep-17 09:43N 40°08' E 024°24'0 1.7
2017-Sep-17 09:31N 40°09' E 024°24'1 1.1
2017-Sep-17 09:01N 40°09' E 024°24'1 1.2
2017-Sep-17 08:23N 40°08' E 024°24'6 6.3
2017-Sep-17 07:24N 40°08' E 024°16'3 6.9
2017-Sep-17 06:58N 40°10' E 024°13'3 6.9
2017-Sep-17 06:30N 40°11' E 024°09'3 6.9
2017-Sep-17 06:00N 40°14' E 024°06'9 6.9
2017-Sep-17 04:46N 40°20' E 023°58'2 6.7
2017-Sep-17 04:28N 40°21' E 023°56'11 0.5
2017-Sep-16 07:44N 40°14' E 024°07'4 6.2
2017-Sep-16 07:07N 40°11' E 024°11'1 6.1
2017-Sep-16 06:58N 40°11' E 024°12'3 6.1
2017-Sep-16 06:25N 40°09' E 024°15'6 0.6
2017-Sep-15 21:12N 40°08' E 024°23'2 1.3
2017-Sep-15 19:49N 40°07' E 024°25'2 6.4
2017-Sep-15 19:30N 40°07' E 024°28'3 6.5
2017-Sep-15 19:00N 40°06' E 024°32'5 7.3
2017-Sep-15 18:21N 40°04' E 024°38'3 7.5
2017-Sep-15 18:00N 40°03' E 024°41'3 6.8
2017-Sep-15 17:30N 40°01' E 024°45'0 0.3
2017-Sep-15 15:55N 40°01' E 024°44'0 0.3
2017-Sep-15 15:30N 40°01' E 024°44'1 0.2
2017-Sep-15 12:03N 40°00' E 024°43'0 0.1
2017-Sep-15 11:43N 40°00' E 024°43'0 0.2
2017-Sep-15 11:30N 40°00' E 024°43'1 0.2
2017-Sep-15 07:00N 40°01' E 024°43'1 0.2
2017-Sep-15 02:10N 40°00' E 024°44'0 1.4
2017-Sep-15 02:00N 40°00' E 024°43'0 0.7
2017-Sep-15 01:28N 39°60' E 024°43'2 1.2
2017-Sep-15 00:09N 40°01' E 024°44'7 6.5
2017-Sep-14 23:06N 40°02' E 024°35'1 7.0
2017-Sep-14 23:00N 40°02' E 024°34'4 7.0
2017-Sep-14 22:30N 40°03' E 024°30'3 6.9
2017-Sep-14 22:00N 40°04' E 024°26'4 7.3
2017-Sep-14 21:25N 40°06' E 024°20'4 7.7
2017-Sep-14 20:55N 40°07' E 024°16'3 7.2
2017-Sep-14 20:30N 40°09' E 024°12'3 6.8
2017-Sep-14 20:00N 40°11' E 024°09'10 0.5
2017-Sep-13 21:52N 40°18' E 023°59'6 7.0
2017-Sep-13 21:04N 40°12' E 024°02'2 6.9
2017-Sep-13 20:49N 40°11' E 024°03'3 6.9
2017-Sep-13 20:25N 40°08' E 024°04'3 6.8
2017-Sep-13 19:58N 40°06' E 024°06'3 6.8
2017-Sep-13 19:30N 40°03' E 024°07'3 6.7
2017-Sep-13 19:00N 39°60' E 024°09'4 6.7
2017-Sep-13 18:29N 39°56' E 024°11'3 6.7
2017-Sep-13 17:59N 39°53' E 024°12'4 6.5
2017-Sep-13 17:26N 39°50' E 024°14'3 6.7
2017-Sep-13 17:00N 39°47' E 024°16'4 6.7
2017-Sep-13 16:28N 39°44' E 024°17'13 3.8
2017-Sep-13 13:05N 39°32' E 024°10'0 0.5
2017-Sep-13 12:57N 39°32' E 024°10'  
2017-Sep-09 11:28N 38°55' E 024°43'15 5.4
2017-Sep-09 08:35N 39°08' E 024°31'1 4.7
2017-Sep-09 08:27N 39°08' E 024°32'2 4.0
2017-Sep-09 07:52N 39°11' E 024°31'19 6.7
2017-Sep-09 05:03N 39°29' E 024°34'1 6.5
2017-Sep-09 04:53N 39°30' E 024°34'2 6.4
2017-Sep-09 04:30N 39°33' E 024°34'5 7.5
2017-Sep-09 03:48N 39°38' E 024°31'12 6.8
2017-Sep-09 02:06N 39°48' E 024°24'19 6.3
2017-Sep-08 23:05N 40°04' E 024°11'1 7.0
2017-Sep-08 22:59N 40°05' E 024°10'15 7.1
2017-Sep-08 20:48N 40°18' E 023°60'  
Track history (hours):
 
Tides and Currents Weather Stations Pressure Air Temp Water Temp Dewpoint Dewpoint Depression Visibility Wind Speed Wind Dir Waves Ship Positions

Makantoyka

Last reported at 2017-Sep-17 15:44 UTC. Time now 2017-Sep-19 11:53 UTC.
Position N 40°15' E 024°06'.

Length 18 m; draft 1.5 m.

Type: Fishing. MMSI: 237451000.

Date/timePositionNaut miles runAvg speedWind from/ knotsBaromVisibWave heightAir tempDewpointWater temp
2017-Sep-17 15:44N 40°15' E 024°06'1 6.9
2017-Sep-17 15:30N 40°14' E 024°08'3 6.9
2017-Sep-17 15:00N 40°11' E 024°11'4 6.6
2017-Sep-17 14:26N 40°09' E 024°15'6 1.6
2017-Sep-17 10:31N 40°08' E 024°23'0 0.8
2017-Sep-17 10:29N 40°08' E 024°23'1 0.9
2017-Sep-17 09:43N 40°08' E 024°24'0 1.7
2017-Sep-17 09:31N 40°09' E 024°24'1 1.1
2017-Sep-17 09:01N 40°09' E 024°24'1 1.2
2017-Sep-17 08:23N 40°08' E 024°24'6 6.3
2017-Sep-17 07:24N 40°08' E 024°16'3 6.9
2017-Sep-17 06:58N 40°10' E 024°13'3 6.9
2017-Sep-17 06:30N 40°11' E 024°09'3 6.9
2017-Sep-17 06:00N 40°14' E 024°06'9 6.9
2017-Sep-17 04:46N 40°20' E 023°58'2 6.7
2017-Sep-17 04:28N 40°21' E 023°56'11 0.5
2017-Sep-16 07:44N 40°14' E 024°07'4 6.2
2017-Sep-16 07:07N 40°11' E 024°11'1 6.1
2017-Sep-16 06:58N 40°11' E 024°12'3 6.1
2017-Sep-16 06:25N 40°09' E 024°15'6 0.6
2017-Sep-15 21:12N 40°08' E 024°23'2 1.3
2017-Sep-15 19:49N 40°07' E 024°25'2 6.4
2017-Sep-15 19:30N 40°07' E 024°28'3 6.5
2017-Sep-15 19:00N 40°06' E 024°32'5 7.3
2017-Sep-15 18:21N 40°04' E 024°38'3 7.5
2017-Sep-15 18:00N 40°03' E 024°41'3 6.8
2017-Sep-15 17:30N 40°01' E 024°45'0 0.3
2017-Sep-15 15:55N 40°01' E 024°44'0 0.3
2017-Sep-15 15:30N 40°01' E 024°44'1 0.2
2017-Sep-15 12:03N 40°00' E 024°43'0 0.1
2017-Sep-15 11:43N 40°00' E 024°43'0 0.2
2017-Sep-15 11:30N 40°00' E 024°43'1 0.2
2017-Sep-15 07:00N 40°01' E 024°43'1 0.2
2017-Sep-15 02:10N 40°00' E 024°44'0 1.4
2017-Sep-15 02:00N 40°00' E 024°43'0 0.7
2017-Sep-15 01:28N 39°60' E 024°43'2 1.2
2017-Sep-15 00:09N 40°01' E 024°44'7 6.5
2017-Sep-14 23:06N 40°02' E 024°35'1 7.0
2017-Sep-14 23:00N 40°02' E 024°34'4 7.0
2017-Sep-14 22:30N 40°03' E 024°30'3 6.9
2017-Sep-14 22:00N 40°04' E 024°26'4 7.3
2017-Sep-14 21:25N 40°06' E 024°20'4 7.7
2017-Sep-14 20:55N 40°07' E 024°16'3 7.2
2017-Sep-14 20:30N 40°09' E 024°12'3 6.8
2017-Sep-14 20:00N 40°11' E 024°09'10 0.5
2017-Sep-13 21:52N 40°18' E 023°59'6 7.0
2017-Sep-13 21:04N 40°12' E 024°02'2 6.9
2017-Sep-13 20:49N 40°11' E 024°03'3 6.9
2017-Sep-13 20:25N 40°08' E 024°04'3 6.8
2017-Sep-13 19:58N 40°06' E 024°06'3 6.8
2017-Sep-13 19:30N 40°03' E 024°07'3 6.7
2017-Sep-13 19:00N 39°60' E 024°09'4 6.7
2017-Sep-13 18:29N 39°56' E 024°11'3 6.7
2017-Sep-13 17:59N 39°53' E 024°12'4 6.5
2017-Sep-13 17:26N 39°50' E 024°14'3 6.7
2017-Sep-13 17:00N 39°47' E 024°16'4 6.7
2017-Sep-13 16:28N 39°44' E 024°17'13 3.8
2017-Sep-13 13:05N 39°32' E 024°10'0 0.5
2017-Sep-13 12:57N 39°32' E 024°10'  
2017-Sep-09 11:28N 38°55' E 024°43'15 5.4
2017-Sep-09 08:35N 39°08' E 024°31'1 4.7
2017-Sep-09 08:27N 39°08' E 024°32'2 4.0
2017-Sep-09 07:52N 39°11' E 024°31'19 6.7
2017-Sep-09 05:03N 39°29' E 024°34'1 6.5
2017-Sep-09 04:53N 39°30' E 024°34'2 6.4
2017-Sep-09 04:30N 39°33' E 024°34'5 7.5
2017-Sep-09 03:48N 39°38' E 024°31'12 6.8
2017-Sep-09 02:06N 39°48' E 024°24'19 6.3
2017-Sep-08 23:05N 40°04' E 024°11'1 7.0
2017-Sep-08 22:59N 40°05' E 024°10'15 7.1
2017-Sep-08 20:48N 40°18' E 023°60'  

Dump ship's entire track history